sensor_id;sensor_type;location;lat;lon;timestamp;P1;durP1;ratioP1;P2;durP2;ratioP2
57718;SDS011;43561;50.090;18.522;2022-12-18T00:09:10;26.27;;;20.48;;
57718;SDS011;43561;50.090;18.522;2022-12-18T00:19:13;37.47;;;22.63;;
57718;SDS011;43561;50.090;18.522;2022-12-18T00:29:16;101.20;;;31.05;;
57718;SDS011;43561;50.090;18.522;2022-12-18T00:39:17;48.60;;;22.65;;
57718;SDS011;43561;50.090;18.522;2022-12-18T00:49:19;54.28;;;26.17;;
57718;SDS011;43561;50.090;18.522;2022-12-18T00:59:21;64.50;;;23.02;;
57718;SDS011;43561;50.090;18.522;2022-12-18T01:09:24;32.83;;;24.48;;
57718;SDS011;43561;50.090;18.522;2022-12-18T01:19:27;64.07;;;21.83;;
57718;SDS011;43561;50.090;18.522;2022-12-18T01:29:29;45.50;;;18.15;;
57718;SDS011;43561;50.090;18.522;2022-12-18T01:39:31;35.67;;;19.20;;
57718;SDS011;43561;50.090;18.522;2022-12-18T01:49:34;31.67;;;21.02;;
57718;SDS011;43561;50.090;18.522;2022-12-18T01:59:35;28.60;;;16.02;;
57718;SDS011;43561;50.090;18.522;2022-12-18T02:09:46;61.85;;;23.25;;
57718;SDS011;43561;50.090;18.522;2022-12-18T02:31:01;20.13;;;12.95;;
57718;SDS011;43561;50.090;18.522;2022-12-18T02:41:06;42.47;;;16.80;;
57718;SDS011;43561;50.090;18.522;2022-12-18T02:51:17;25.10;;;19.90;;
57718;SDS011;43561;50.090;18.522;2022-12-18T03:11:37;21.33;;;16.13;;
57718;SDS011;43561;50.090;18.522;2022-12-18T03:21:47;26.90;;;14.75;;
57718;SDS011;43561;50.090;18.522;2022-12-18T03:31:53;21.02;;;17.50;;
57718;SDS011;43561;50.090;18.522;2022-12-18T03:52:23;38.05;;;25.33;;
57718;SDS011;43561;50.090;18.522;2022-12-18T04:02:43;21.98;;;17.30;;
57718;SDS011;43561;50.090;18.522;2022-12-18T04:12:56;29.38;;;17.77;;
57718;SDS011;43561;50.090;18.522;2022-12-18T04:22:59;17.77;;;12.70;;
57718;SDS011;43561;50.090;18.522;2022-12-18T04:33:02;12.45;;;11.10;;
57718;SDS011;43561;50.090;18.522;2022-12-18T04:43:05;30.92;;;17.25;;
57718;SDS011;43561;50.090;18.522;2022-12-18T04:53:07;28.02;;;17.25;;
57718;SDS011;43561;50.090;18.522;2022-12-18T05:03:10;26.92;;;16.85;;
57718;SDS011;43561;50.090;18.522;2022-12-18T05:13:12;14.90;;;13.50;;
57718;SDS011;43561;50.090;18.522;2022-12-18T05:23:13;14.00;;;10.80;;
57718;SDS011;43561;50.090;18.522;2022-12-18T05:33:16;51.47;;;21.42;;
57718;SDS011;43561;50.090;18.522;2022-12-18T05:43:18;32.45;;;18.58;;
57718;SDS011;43561;50.090;18.522;2022-12-18T05:53:22;25.88;;;16.52;;
57718;SDS011;43561;50.090;18.522;2022-12-18T06:03:24;34.88;;;20.10;;
57718;SDS011;43561;50.090;18.522;2022-12-18T06:13:35;34.30;;;16.88;;
57718;SDS011;43561;50.090;18.522;2022-12-18T06:23:38;24.17;;;16.08;;
57718;SDS011;43561;50.090;18.522;2022-12-18T06:33:41;33.60;;;15.07;;
57718;SDS011;43561;50.090;18.522;2022-12-18T06:43:43;26.90;;;20.90;;
57718;SDS011;43561;50.090;18.522;2022-12-18T06:53:45;35.08;;;19.98;;
57718;SDS011;43561;50.090;18.522;2022-12-18T07:03:51;30.95;;;19.35;;
57718;SDS011;43561;50.090;18.522;2022-12-18T07:13:54;40.10;;;22.23;;
57718;SDS011;43561;50.090;18.522;2022-12-18T07:23:56;45.85;;;20.35;;
57718;SDS011;43561;50.090;18.522;2022-12-18T07:33:58;47.08;;;21.15;;
57718;SDS011;43561;50.090;18.522;2022-12-18T07:44:00;23.15;;;15.52;;
57718;SDS011;43561;50.090;18.522;2022-12-18T07:54:05;44.00;;;17.00;;
57718;SDS011;43561;50.090;18.522;2022-12-18T08:04:07;23.50;;;14.38;;
57718;SDS011;43561;50.090;18.522;2022-12-18T08:14:09;25.58;;;15.68;;
57718;SDS011;43561;50.090;18.522;2022-12-18T08:24:11;25.42;;;12.90;;
57718;SDS011;43561;50.090;18.522;2022-12-18T08:34:13;32.55;;;27.10;;
57718;SDS011;43561;50.090;18.522;2022-12-18T08:44:15;36.03;;;22.02;;
57718;SDS011;43561;50.090;18.522;2022-12-18T08:54:16;29.17;;;20.15;;
57718;SDS011;43561;50.090;18.522;2022-12-18T09:04:18;42.63;;;23.23;;
57718;SDS011;43561;50.090;18.522;2022-12-18T09:14:20;46.75;;;20.40;;
57718;SDS011;43561;50.090;18.522;2022-12-18T09:24:22;33.78;;;17.25;;
57718;SDS011;43561;50.090;18.522;2022-12-18T09:34:24;41.83;;;21.45;;
57718;SDS011;43561;50.090;18.522;2022-12-18T09:44:30;57.72;;;32.92;;
57718;SDS011;43561;50.090;18.522;2022-12-18T09:54:46;31.95;;;22.48;;
57718;SDS011;43561;50.090;18.522;2022-12-18T10:04:56;24.83;;;19.10;;
57718;SDS011;43561;50.090;18.522;2022-12-18T10:25:53;34.25;;;20.40;;
57718;SDS011;43561;50.090;18.522;2022-12-18T10:35:56;34.70;;;17.65;;
57718;SDS011;43561;50.090;18.522;2022-12-18T10:56:13;40.17;;;21.83;;
57718;SDS011;43561;50.090;18.522;2022-12-18T11:06:22;36.40;;;21.60;;
57718;SDS011;43561;50.090;18.522;2022-12-18T11:16:25;56.42;;;25.08;;
57718;SDS011;43561;50.090;18.522;2022-12-18T11:26:33;47.72;;;25.55;;
57718;SDS011;43561;50.090;18.522;2022-12-18T11:36:38;32.97;;;21.05;;
57718;SDS011;43561;50.090;18.522;2022-12-18T11:46:47;32.33;;;21.85;;
57718;SDS011;43561;50.090;18.522;2022-12-18T11:57:07;45.20;;;14.80;;
57718;SDS011;43561;50.090;18.522;2022-12-18T12:18:09;11.63;;;10.55;;
57718;SDS011;43561;50.090;18.522;2022-12-18T12:38:43;33.05;;;23.63;;
57718;SDS011;43561;50.090;18.522;2022-12-18T12:48:53;29.88;;;17.63;;
57718;SDS011;43561;50.090;18.522;2022-12-18T12:59:12;24.30;;;18.30;;
57718;SDS011;43561;50.090;18.522;2022-12-18T13:09:36;21.95;;;14.05;;
57718;SDS011;43561;50.090;18.522;2022-12-18T13:20:19;37.22;;;24.33;;
57718;SDS011;43561;50.090;18.522;2022-12-18T13:30:55;30.25;;;18.42;;
57718;SDS011;43561;50.090;18.522;2022-12-18T13:40:58;26.48;;;18.40;;
57718;SDS011;43561;50.090;18.522;2022-12-18T13:51:06;24.43;;;21.77;;
57718;SDS011;43561;50.090;18.522;2022-12-18T14:01:23;41.30;;;29.35;;
57718;SDS011;43561;50.090;18.522;2022-12-18T14:11:26;35.65;;;25.15;;
57718;SDS011;43561;50.090;18.522;2022-12-18T14:21:29;35.83;;;17.48;;
57718;SDS011;43561;50.090;18.522;2022-12-18T14:31:32;41.83;;;24.95;;
57718;SDS011;43561;50.090;18.522;2022-12-18T14:41:33;69.90;;;40.47;;
57718;SDS011;43561;50.090;18.522;2022-12-18T14:51:35;54.50;;;39.50;;
57718;SDS011;43561;50.090;18.522;2022-12-18T15:01:39;91.13;;;46.90;;
57718;SDS011;43561;50.090;18.522;2022-12-18T15:11:48;84.65;;;48.55;;
57718;SDS011;43561;50.090;18.522;2022-12-18T15:21:50;64.00;;;42.08;;
57718;SDS011;43561;50.090;18.522;2022-12-18T15:32:01;116.70;;;58.00;;
57718;SDS011;43561;50.090;18.522;2022-12-18T15:42:07;121.68;;;56.38;;
57718;SDS011;43561;50.090;18.522;2022-12-18T15:52:11;95.88;;;56.25;;
57718;SDS011;43561;50.090;18.522;2022-12-18T16:02:16;72.47;;;52.20;;
57718;SDS011;43561;50.090;18.522;2022-12-18T16:12:20;69.00;;;47.88;;
57718;SDS011;43561;50.090;18.522;2022-12-18T16:22:24;107.00;;;58.85;;
57718;SDS011;43561;50.090;18.522;2022-12-18T16:32:28;76.20;;;55.50;;
57718;SDS011;43561;50.090;18.522;2022-12-18T16:42:31;142.90;;;69.43;;
57718;SDS011;43561;50.090;18.522;2022-12-18T16:52:33;91.80;;;58.17;;
57718;SDS011;43561;50.090;18.522;2022-12-18T17:02:35;99.38;;;53.90;;
57718;SDS011;43561;50.090;18.522;2022-12-18T17:12:38;123.82;;;77.90;;
57718;SDS011;43561;50.090;18.522;2022-12-18T17:22:40;69.47;;;58.08;;
57718;SDS011;43561;50.090;18.522;2022-12-18T17:32:41;86.90;;;68.65;;
57718;SDS011;43561;50.090;18.522;2022-12-18T17:42:43;82.28;;;63.90;;
57718;SDS011;43561;50.090;18.522;2022-12-18T17:52:45;95.20;;;61.40;;
57718;SDS011;43561;50.090;18.522;2022-12-18T18:02:47;76.47;;;59.08;;
57718;SDS011;43561;50.090;18.522;2022-12-18T18:12:49;77.43;;;57.33;;
57718;SDS011;43561;50.090;18.522;2022-12-18T18:22:51;65.85;;;56.17;;
57718;SDS011;43561;50.090;18.522;2022-12-18T18:32:53;34.95;;;31.35;;
57718;SDS011;43561;50.090;18.522;2022-12-18T18:42:55;43.88;;;39.15;;
57718;SDS011;43561;50.090;18.522;2022-12-18T18:52:57;115.15;;;64.07;;
57718;SDS011;43561;50.090;18.522;2022-12-18T19:02:59;77.97;;;65.07;;
57718;SDS011;43561;50.090;18.522;2022-12-18T19:13:01;157.90;;;98.68;;
57718;SDS011;43561;50.090;18.522;2022-12-18T19:23:04;44.92;;;40.13;;
57718;SDS011;43561;50.090;18.522;2022-12-18T19:33:05;57.22;;;46.20;;
57718;SDS011;43561;50.090;18.522;2022-12-18T19:43:27;75.35;;;53.45;;
57718;SDS011;43561;50.090;18.522;2022-12-18T19:53:29;96.65;;;51.83;;
57718;SDS011;43561;50.090;18.522;2022-12-18T20:03:31;132.35;;;59.33;;
57718;SDS011;43561;50.090;18.522;2022-12-18T20:13:34;58.72;;;44.90;;
57718;SDS011;43561;50.090;18.522;2022-12-18T20:23:36;57.58;;;31.17;;
57718;SDS011;43561;50.090;18.522;2022-12-18T20:33:38;92.22;;;48.15;;
57718;SDS011;43561;50.090;18.522;2022-12-18T20:43:40;60.97;;;38.80;;
57718;SDS011;43561;50.090;18.522;2022-12-18T20:53:43;96.13;;;47.90;;
57718;SDS011;43561;50.090;18.522;2022-12-18T21:03:46;101.57;;;60.42;;
57718;SDS011;43561;50.090;18.522;2022-12-18T21:13:49;84.97;;;39.60;;
57718;SDS011;43561;50.090;18.522;2022-12-18T21:23:51;56.63;;;41.28;;
57718;SDS011;43561;50.090;18.522;2022-12-18T21:33:53;87.22;;;61.78;;
57718;SDS011;43561;50.090;18.522;2022-12-18T21:44:02;74.93;;;50.15;;
57718;SDS011;43561;50.090;18.522;2022-12-18T21:54:05;91.75;;;44.95;;
57718;SDS011;43561;50.090;18.522;2022-12-18T22:04:07;132.65;;;64.05;;
57718;SDS011;43561;50.090;18.522;2022-12-18T22:14:09;47.55;;;41.28;;
57718;SDS011;43561;50.090;18.522;2022-12-18T22:24:15;45.83;;;39.90;;
57718;SDS011;43561;50.090;18.522;2022-12-18T22:34:21;75.18;;;52.33;;
57718;SDS011;43561;50.090;18.522;2022-12-18T22:44:26;63.70;;;46.90;;
57718;SDS011;43561;50.090;18.522;2022-12-18T22:54:28;64.18;;;41.75;;
57718;SDS011;43561;50.090;18.522;2022-12-18T23:04:30;125.50;;;57.03;;
57718;SDS011;43561;50.090;18.522;2022-12-18T23:14:36;56.28;;;46.53;;
57718;SDS011;43561;50.090;18.522;2022-12-18T23:24:38;60.78;;;46.53;;
57718;SDS011;43561;50.090;18.522;2022-12-18T23:34:40;74.63;;;38.92;;
57718;SDS011;43561;50.090;18.522;2022-12-18T23:44:42;123.32;;;62.42;;
57718;SDS011;43561;50.090;18.522;2022-12-18T23:54:44;154.38;;;77.40;;
